Time;durP1;ratioP1;P1;durP2;ratioP2;P2;SDS_P1;SDS_P2;PMS_P1;PMS_P2;Temp;Humidity;BMP_temperature;BMP_pressure;BME280_temperature;BME280_humidity;BME280_pressure;Samples;Min_cycle;Max_cycle;Signal;HPM_P1;HPM_P2
2021/06/23 00:00:56;;;;;;;17.80;11.18;;;;;;;13.15;91.20;101509.81;5046523;28;20053;-84
2021/06/23 00:03:22;;;;;;;20.35;11.70;;;;;;;13.14;91.56;101509.97;5049290;28;20472;-84
2021/06/23 00:05:48;;;;;;;15.20;10.65;;;;;;;13.05;91.79;101509.09;5047967;28;20060;-83
2021/06/23 00:08:13;;;;;;;16.77;10.43;;;;;;;13.21;91.80;101503.75;5047984;28;20045;-84
2021/06/23 00:10:40;;;;;;;16.67;10.50;;;;;;;13.26;90.85;101509.53;5043410;28;20652;-83
2021/06/23 00:13:07;;;;;;;12.65;10.25;;;;;;;13.23;91.07;101503.59;5045025;28;20052;-85
2021/06/23 00:15:33;;;;;;;16.70;10.48;;;;;;;13.18;90.23;101505.94;5040476;28;20065;-84
2021/06/23 00:17:59;;;;;;;15.00;10.43;;;;;;;13.22;90.51;101510.84;5041435;28;20553;-86
2021/06/23 00:20:25;;;;;;;15.70;10.55;;;;;;;13.17;91.57;101509.63;5043824;28;20083;-87
2021/06/23 00:22:51;;;;;;;19.85;10.10;;;;;;;13.27;91.41;101510.38;5039475;28;20076;-85
2021/06/23 00:25:17;;;;;;;18.38;10.57;;;;;;;13.28;91.10;101514.75;5044571;28;20851;-83
2021/06/23 00:27:42;;;;;;;15.52;9.63;;;;;;;13.07;91.31;101516.00;5044679;28;20049;-84
2021/06/23 00:30:08;;;;;;;15.70;10.23;;;;;;;13.17;92.13;101517.72;5046257;28;20045;-83
2021/06/23 00:32:35;;;;;;;17.00;10.77;;;;;;;13.14;91.29;101515.34;5047458;28;20603;-87
2021/06/23 00:35:03;;;;;;;18.42;10.60;;;;;;;13.18;91.83;101516.72;5045529;28;20048;-84
2021/06/23 00:37:28;;;;;;;19.48;10.55;;;;;;;13.22;91.78;101523.47;5047462;28;20477;-84
2021/06/23 00:39:54;;;;;;;18.42;9.98;;;;;;;13.29;91.89;101524.53;5046790;28;20081;-84
2021/06/23 00:42:19;;;;;;;18.92;10.00;;;;;;;13.34;91.45;101532.13;5058872;28;20073;-83
2021/06/23 00:44:45;;;;;;;18.65;10.48;;;;;;;13.28;91.61;101534.47;5041579;28;20037;-87
2021/06/23 00:47:10;;;;;;;16.92;9.68;;;;;;;13.17;91.50;101532.03;5044584;28;20080;-84
2021/06/23 00:49:37;;;;;;;15.15;9.52;;;;;;;13.28;91.98;101537.16;5046256;28;20041;-83
2021/06/23 00:52:03;;;;;;;17.05;9.70;;;;;;;13.27;91.54;101532.78;5043176;28;20459;-84
2021/06/23 00:54:29;;;;;;;23.92;10.95;;;;;;;13.14;92.67;101536.91;5059290;28;20475;-83
2021/06/23 00:56:59;;;;;;;17.02;9.45;;;;;;;13.09;92.62;101543.66;5043281;28;20045;-86
2021/06/23 00:59:25;;;;;;;;;;;;;;;13.13;92.28;101540.63;5036582;28;20067;-83
2021/06/23 01:01:51;;;;;;;19.55;10.20;;;;;;;13.09;92.64;101546.34;5042596;28;19917;-83
2021/06/23 01:04:17;;;;;;;16.50;10.48;;;;;;;13.08;92.40;101549.19;5042780;28;20044;-83
2021/06/23 01:06:43;;;;;;;14.77;10.35;;;;;;;13.09;92.38;101538.25;5045430;28;20061;-83
2021/06/23 01:09:09;;;;;;;19.58;10.95;;;;;;;13.11;92.35;101543.47;5044664;28;20056;-86
2021/06/23 01:11:41;;;;;;;17.65;10.05;;;;;;;12.99;92.41;101539.38;5046688;28;20179;-85
2021/06/23 01:14:06;;;;;;;15.73;9.68;;;;;;;13.05;92.40;101536.03;5041978;28;20140;-83
2021/06/23 01:16:38;;;;;;;15.45;9.65;;;;;;;12.95;92.39;101548.81;5047024;28;20059;-83
2021/06/23 01:19:09;;;;;;;17.20;9.98;;;;;;;13.05;92.37;101544.97;5040363;28;20045;-84
2021/06/23 01:21:34;;;;;;;16.45;11.05;;;;;;;13.04;91.90;101553.22;5035453;28;20041;-83
2021/06/23 01:23:59;;;;;;;14.38;9.27;;;;;;;13.14;91.88;101556.63;5042656;28;20046;-84
2021/06/23 01:26:25;;;;;;;17.60;9.95;;;;;;;13.16;91.65;101554.59;5041748;28;20128;-83
2021/06/23 01:28:50;;;;;;;19.20;9.65;;;;;;;13.15;91.53;101555.63;5040954;28;20055;-84
2021/06/23 01:31:18;;;;;;;17.17;9.75;;;;;;;13.17;91.80;101558.13;5046923;28;20348;-84
2021/06/23 01:33:44;;;;;;;13.70;9.45;;;;;;;13.19;92.27;101554.28;5042328;28;20087;-83
2021/06/23 01:36:10;;;;;;;17.33;9.55;;;;;;;13.14;91.12;101553.09;5042430;28;20049;-85
2021/06/23 01:38:35;;;;;;;17.30;9.75;;;;;;;13.08;91.32;101549.19;5037708;28;20095;-84
2021/06/23 01:41:00;;;;;;;15.05;9.07;;;;;;;12.95;92.22;101548.81;5043247;28;20091;-83
2021/06/23 01:43:26;;;;;;;17.77;9.98;;;;;;;12.97;91.36;101552.16;5044994;28;20063;-84
2021/06/23 01:45:51;;;;;;;15.57;9.60;;;;;;;12.93;91.64;101556.19;5044715;28;20106;-84
2021/06/23 01:48:23;;;;;;;17.23;10.27;;;;;;;13.03;91.86;101562.28;5045280;28;20047;-83
2021/06/23 01:51:00;;;;;;;14.98;9.68;;;;;;;13.05;91.87;101557.59;5039177;28;20487;-83
2021/06/23 01:53:26;;;;;;;16.67;9.23;;;;;;;12.99;91.20;101553.69;5037898;28;20650;-83
2021/06/23 01:55:53;;;;;;;17.58;8.68;;;;;;;13.06;91.32;101561.97;5045766;28;20057;-83
2021/06/23 01:58:19;;;;;;;17.88;10.18;;;;;;;13.10;91.64;101553.41;5045638;28;20049;-85
2021/06/23 02:00:53;;;;;;;17.15;9.35;;;;;;;13.17;91.76;101552.75;5045935;28;20065;-86
2021/06/23 02:03:40;;;;;;;13.55;9.68;;;;;;;13.14;90.92;101550.38;5045046;28;20094;-84
2021/06/23 02:06:08;;;;;;;16.63;9.52;;;;;;;13.12;91.47;101545.19;5043017;28;20041;-83
2021/06/23 02:08:45;;;;;;;17.10;9.65;;;;;;;13.01;91.49;101543.59;5036779;28;20060;-83
2021/06/23 02:11:52;;;;;;;15.95;8.07;;;;;;;12.88;91.89;101540.50;5045176;28;20071;-82
2021/06/23 02:14:40;;;;;;;14.13;8.15;;;;;;;12.95;90.73;101548.81;5018223;28;20053;-86
2021/06/23 02:17:08;;;;;;;16.48;8.45;;;;;;;12.96;91.22;101554.00;5057440;28;20127;-83
2021/06/23 02:19:46;;;;;;;11.60;8.60;;;;;;;13.00;90.81;101557.22;5025391;28;20179;-83
2021/06/23 02:22:18;;;;;;;13.80;8.10;;;;;;;13.01;91.05;101550.84;5006277;28;20128;-83
2021/06/23 02:24:45;;;;;;;13.45;7.93;;;;;;;12.84;91.09;101549.94;5023321;28;20053;-84
2021/06/23 02:27:13;;;;;;;17.83;9.07;;;;;;;12.92;91.15;101549.09;5022455;28;20076;-83
2021/06/23 02:29:39;;;;;;;18.40;9.33;;;;;;;12.98;91.94;101554.72;5023458;28;20061;-85
2021/06/23 02:32:12;;;;;;;16.05;8.50;;;;;;;13.00;90.90;101557.22;5035167;28;20041;-84
2021/06/23 02:34:38;;;;;;;15.20;7.93;;;;;;;12.95;90.47;101560.41;5044873;28;20127;-84
2021/06/23 02:37:04;;;;;;;18.33;9.15;;;;;;;12.93;91.37;101561.59;5045019;28;20057;-83
2021/06/23 02:39:30;;;;;;;15.13;8.40;;;;;;;12.97;91.03;101563.78;5045103;28;20088;-85
2021/06/23 02:41:55;;;;;;;14.77;9.07;;;;;;;12.99;91.20;101575.25;5045227;28;20049;-83
2021/06/23 02:44:21;;;;;;;17.00;8.93;;;;;;;12.94;91.45;101574.03;5041768;28;20049;-86
2021/06/23 02:46:46;;;;;;;15.50;8.90;;;;;;;13.01;91.39;101570.56;5044697;28;20072;-83
2021/06/23 02:49:13;;;;;;;16.70;9.02;;;;;;;12.95;91.36;101565.81;5044629;28;20075;-84
2021/06/23 02:51:41;;;;;;;16.42;9.10;;;;;;;12.90;91.88;101568.13;5044440;28;20052;-83
2021/06/23 02:54:08;;;;;;;15.70;9.15;;;;;;;12.79;92.25;101565.72;5044399;28;20049;-86
2021/06/23 02:56:34;;;;;;;13.25;9.43;;;;;;;12.92;92.01;101567.97;5044351;28;20106;-84
2021/06/23 02:59:01;;;;;;;13.77;9.05;;;;;;;12.93;91.97;101566.97;5043848;28;20551;-84
2021/06/23 03:01:27;;;;;;;15.13;9.30;;;;;;;12.95;92.72;101568.50;5045117;28;20041;-83
2021/06/23 03:03:52;;;;;;;17.48;10.55;;;;;;;12.87;92.18;101574.69;5044257;28;20055;-83
2021/06/23 03:06:18;;;;;;;14.68;9.38;;;;;;;12.82;92.86;101576.16;5043544;28;20048;-86
2021/06/23 03:08:43;;;;;;;18.38;9.80;;;;;;;12.75;93.40;101578.66;5043078;28;20131;-82
2021/06/23 03:11:09;;;;;;;17.88;9.95;;;;;;;12.81;93.90;101579.88;5044793;28;20056;-83
2021/06/23 03:13:35;;;;;;;14.45;9.98;;;;;;;12.83;93.39;101580.53;5044561;28;20484;-84
2021/06/23 03:16:01;;;;;;;16.90;10.38;;;;;;;12.85;93.17;101581.22;5044760;28;20143;-83
2021/06/23 03:18:32;;;;;;;15.55;9.80;;;;;;;12.93;93.52;101583.13;5043403;28;20132;-85
2021/06/23 03:20:57;;;;;;;16.15;9.85;;;;;;;12.85;92.70;101573.16;5040630;28;20044;-82
2021/06/23 03:23:23;;;;;;;16.25;10.35;;;;;;;12.83;93.67;101580.53;5042865;28;20056;-84
2021/06/23 03:25:48;;;;;;;16.88;10.38;;;;;;;12.70;93.69;101575.59;5042856;28;20041;-85
2021/06/23 03:28:13;;;;;;;18.58;10.07;;;;;;;12.76;93.45;101577.66;5044769;28;20201;-82
2021/06/23 03:30:39;;;;;;;13.88;9.30;;;;;;;12.84;92.31;101574.16;5044748;28;20488;-85
2021/06/23 03:33:05;;;;;;;16.88;9.20;;;;;;;12.78;92.74;101575.66;5042626;28;20122;-83
2021/06/23 03:35:30;;;;;;;11.80;9.10;;;;;;;12.85;92.26;101575.84;5045615;28;20090;-83
2021/06/23 03:37:56;;;;;;;17.77;9.50;;;;;;;12.77;92.21;101586.56;5043407;28;20065;-84
2021/06/23 03:40:23;;;;;;;15.32;8.93;;;;;;;12.85;92.33;101584.75;5037897;28;20365;-84
2021/06/23 03:42:49;;;;;;;12.65;8.23;;;;;;;12.83;91.84;101583.22;5045676;28;20041;-83
2021/06/23 03:45:15;;;;;;;14.40;9.05;;;;;;;12.85;92.26;101592.84;5042519;28;20076;-82
2021/06/23 03:47:41;;;;;;;18.83;9.25;;;;;;;12.88;92.16;101589.84;5041347;28;20120;-83
2021/06/23 03:50:08;;;;;;;15.27;9.73;;;;;;;12.97;92.53;101589.88;5047896;28;20083;-82
2021/06/23 03:52:34;;;;;;;17.40;9.38;;;;;;;12.98;92.24;101587.03;5047509;28;20098;-82
2021/06/23 03:55:00;;;;;;;18.45;9.45;;;;;;;12.87;91.67;101590.84;5048468;28;20123;-86
2021/06/23 03:57:26;;;;;;;16.27;8.98;;;;;;;12.84;91.75;101585.78;5044755;28;20060;-84
2021/06/23 03:59:52;;;;;;;15.60;8.65;;;;;;;12.84;91.69;101585.78;5044713;28;20052;-84
2021/06/23 04:02:18;;;;;;;16.45;8.88;;;;;;;12.78;91.86;101575.66;5044289;28;20053;-82
2021/06/23 04:04:45;;;;;;;14.55;8.85;;;;;;;12.83;92.05;101572.47;5044118;28;20049;-83
2021/06/23 04:07:10;;;;;;;13.20;8.02;;;;;;;12.71;92.33;101571.88;5045369;28;20053;-82
2021/06/23 04:09:36;;;;;;;14.93;8.90;;;;;;;12.81;92.04;101585.25;5045566;28;20051;-83
2021/06/23 04:12:01;;;;;;;13.80;8.25;;;;;;;12.95;91.55;101591.91;5047237;28;20057;-83
2021/06/23 04:14:28;;;;;;;17.05;8.93;;;;;;;12.86;91.83;101593.72;5045587;28;20128;-84
2021/06/23 04:16:54;;;;;;;16.98;9.70;;;;;;;12.80;91.76;101592.50;5044483;28;20045;-86
2021/06/23 04:19:20;;;;;;;13.23;8.45;;;;;;;12.77;92.39;101592.78;5043025;28;20052;-84
2021/06/23 04:21:45;;;;;;;16.65;8.48;;;;;;;12.70;93.14;101596.31;5045593;28;20785;-82
2021/06/23 04:24:11;;;;;;;12.02;8.50;;;;;;;12.76;93.16;101598.34;5032783;28;20046;-83
2021/06/23 04:26:37;;;;;;;12.90;8.70;;;;;;;12.80;93.03;101592.50;5035597;28;20049;-84
2021/06/23 04:29:03;;;;;;;21.85;9.35;;;;;;;12.78;93.29;101591.81;5037626;28;20053;-82
2021/06/23 04:31:28;;;;;;;16.08;9.60;;;;;;;12.76;93.97;101591.13;5038145;28;20134;-88
2021/06/23 04:33:54;;;;;;;16.60;8.70;;;;;;;12.77;94.30;101587.41;5040307;28;20175;-83
2021/06/23 04:36:19;;;;;;;14.32;9.45;;;;;;;12.84;94.41;101593.03;5033571;28;20539;-86
2021/06/23 04:38:44;;;;;;;20.85;9.88;;;;;;;12.76;94.58;101590.28;5023695;28;20056;-85
2021/06/23 04:41:10;;;;;;;18.63;9.82;;;;;;;12.75;95.11;101592.13;5042345;28;20186;-85
2021/06/23 04:43:35;;;;;;;21.00;11.30;;;;;;;12.88;94.50;101591.69;5040404;28;20072;-85
2021/06/23 04:46:00;;;;;;;15.30;9.73;;;;;;;12.81;95.07;101590.66;5042855;28;20385;-85
2021/06/23 04:48:26;;;;;;;17.20;10.80;;;;;;;12.79;95.52;101598.88;5042145;28;20092;-83
2021/06/23 04:50:51;;;;;;;15.85;10.00;;;;;;;12.84;95.25;101596.56;5023088;28;20053;-84
2021/06/23 04:53:17;;;;;;;16.70;10.15;;;;;;;12.85;94.33;101597.41;5027794;28;20061;-85
2021/06/23 04:55:42;;;;;;;19.13;10.18;;;;;;;12.99;94.07;101595.97;5044676;28;20400;-87
2021/06/23 04:58:07;;;;;;;17.80;11.02;;;;;;;12.97;93.98;101595.25;5045298;28;20067;-84
2021/06/23 05:00:33;;;;;;;14.50;10.68;;;;;;;13.03;93.54;101600.88;5044020;28;20048;-84
2021/06/23 05:02:58;;;;;;;17.60;10.73;;;;;;;13.08;93.62;101595.00;5043203;28;20048;-83
2021/06/23 05:05:24;;;;;;;15.68;9.90;;;;;;;13.12;92.74;101595.50;5046894;28;20427;-84
2021/06/23 05:07:52;;;;;;;19.23;10.35;;;;;;;13.09;93.23;101608.31;5046245;28;20045;-85
2021/06/23 05:10:17;;;;;;;14.32;9.70;;;;;;;13.04;93.11;101613.34;5042484;28;20052;-85
2021/06/23 05:12:43;;;;;;;16.60;9.52;;;;;;;12.99;93.05;101609.44;5039837;28;20037;-85
2021/06/23 05:15:09;;;;;;;17.13;9.50;;;;;;;13.04;92.61;101609.81;5040878;28;20132;-85
2021/06/23 05:17:34;;;;;;;18.50;10.13;;;;;;;13.01;92.62;101602.88;5044412;28;20060;-83
2021/06/23 05:20:00;;;;;;;14.55;9.35;;;;;;;13.02;92.80;101614.50;5041570;28;20045;-86
2021/06/23 05:22:25;;;;;;;12.57;8.80;;;;;;;13.11;91.51;101618.91;5041912;28;20044;-86
2021/06/23 05:24:51;;;;;;;18.63;8.73;;;;;;;13.14;90.76;101613.19;5039121;28;20467;-84
2021/06/23 05:27:17;;;;;;;17.92;8.63;;;;;;;13.12;90.40;101600.91;5043573;28;20114;-84
2021/06/23 05:29:43;;;;;;;15.98;8.70;;;;;;;13.18;90.79;101609.19;5040505;28;20503;-84
2021/06/23 05:32:09;;;;;;;18.45;8.85;;;;;;;13.32;89.77;101611.31;5035153;28;20049;-88
2021/06/23 05:34:36;;;;;;;15.80;8.73;;;;;;;13.27;89.70;101608.25;5057992;28;20665;-85
2021/06/23 05:37:02;;;;;;;16.70;8.80;;;;;;;13.30;90.20;101613.31;5043692;28;20041;-85
2021/06/23 05:39:27;;;;;;;17.15;8.38;;;;;;;13.32;88.99;101613.13;5041012;28;20037;-85
2021/06/23 05:41:53;;;;;;;16.95;8.48;;;;;;;13.32;88.71;101616.72;5042885;28;20045;-84
2021/06/23 05:44:18;;;;;;;12.90;8.45;;;;;;;13.39;89.03;101621.44;5040354;28;20526;-85
2021/06/23 05:46:44;;;;;;;14.90;9.13;;;;;;;13.51;89.82;101626.38;5042828;28;20073;-84
2021/06/23 05:49:09;;;;;;;14.23;8.95;;;;;;;13.60;89.55;101627.25;5042016;28;20053;-83
2021/06/23 05:51:35;;;;;;;15.70;8.23;;;;;;;13.60;88.48;101635.31;5044888;28;20436;-84
2021/06/23 05:54:00;;;;;;;13.23;7.20;;;;;;;13.56;88.22;101627.75;5046803;28;20137;-86
2021/06/23 05:56:26;;;;;;;11.88;7.40;;;;;;;13.65;88.31;101624.91;5036836;28;20072;-88
2021/06/23 05:58:52;;;;;;;10.75;7.00;;;;;;;13.64;86.18;101625.06;5039105;28;20441;-85
2021/06/23 06:01:17;;;;;;;17.85;7.35;;;;;;;13.58;86.74;101631.97;5041150;28;21606;-84
2021/06/23 06:03:42;;;;;;;11.73;7.18;;;;;;;13.59;86.96;101632.81;5041800;28;20471;-85
2021/06/23 06:06:08;;;;;;;13.35;6.88;;;;;;;13.63;86.37;101634.16;5044022;28;20480;-85
2021/06/23 06:08:33;;;;;;;14.05;6.07;;;;;;;13.44;86.02;101635.28;5077538;28;20441;-88
2021/06/23 06:10:59;;;;;;;13.10;5.60;;;;;;;13.53;86.58;101639.69;5044488;28;20124;-84
2021/06/23 06:13:24;;;;;;;11.10;5.15;;;;;;;13.68;85.55;101642.59;5043924;28;20211;-84
2021/06/23 06:15:50;;;;;;;13.43;4.90;;;;;;;13.59;84.56;101638.19;5040534;28;20505;-84
2021/06/23 06:18:15;;;;;;;11.82;5.18;;;;;;;13.68;84.39;101638.06;5043861;28;20505;-84
2021/06/23 06:20:41;;;;;;;9.85;4.80;;;;;;;13.90;83.96;101646.56;5046137;28;20492;-85
2021/06/23 06:23:07;;;;;;;12.90;5.35;;;;;;;13.88;82.67;101640.47;5042886;28;20542;-88
2021/06/23 06:25:33;;;;;;;11.45;5.80;;;;;;;13.84;85.00;101639.09;5046582;28;20045;-83
2021/06/23 06:28:00;;;;;;;10.82;4.75;;;;;;;14.00;83.26;101641.84;5043805;28;20495;-86
2021/06/23 06:30:26;;;;;;;11.93;5.47;;;;;;;14.14;84.47;101643.88;5041916;28;20045;-84
2021/06/23 06:32:52;;;;;;;14.02;5.50;;;;;;;14.20;84.22;101654.00;5041086;28;20044;-84
2021/06/23 06:35:18;;;;;;;11.48;5.03;;;;;;;14.22;82.23;101645.75;5038711;28;20191;-86
2021/06/23 06:37:43;;;;;;;8.50;5.03;;;;;;;14.14;81.55;101651.97;5041609;28;20676;-85
2021/06/23 06:40:10;;;;;;;9.93;4.20;;;;;;;14.24;81.94;101654.50;5044436;28;20053;-84
2021/06/23 06:42:35;;;;;;;11.80;4.50;;;;;;;14.24;81.56;101654.50;5045794;28;20726;-84
2021/06/23 06:45:03;;;;;;;12.18;4.68;;;;;;;14.35;82.21;101653.34;5043377;28;20048;-84
2021/06/23 06:47:28;;;;;;;10.70;4.35;;;;;;;14.31;80.71;101654.72;5039791;28;20499;-84
2021/06/23 06:49:53;;;;;;;10.32;4.00;;;;;;;14.24;79.89;101657.22;5041099;28;20091;-85
2021/06/23 06:52:19;;;;;;;10.07;4.03;;;;;;;14.25;80.34;101653.53;5037162;28;20111;-84
2021/06/23 06:54:44;;;;;;;8.75;4.30;;;;;;;14.14;79.27;101654.69;5041793;28;20079;-85
2021/06/23 06:57:10;;;;;;;12.95;4.30;;;;;;;14.12;79.96;101656.69;5036819;28;20087;-85
2021/06/23 06:59:35;;;;;;;9.88;4.40;;;;;;;14.27;81.25;101661.44;5041363;28;20056;-84
2021/06/23 07:02:02;;;;;;;9.73;3.90;;;;;;;14.32;79.64;101669.88;5043127;28;20418;-84
2021/06/23 07:04:27;;;;;;;9.95;3.80;;;;;;;14.41;78.87;101661.63;5039062;28;20559;-84
2021/06/23 07:06:53;;;;;;;11.43;4.43;;;;;;;14.35;78.93;101661.44;5039688;28;20136;-87
2021/06/23 07:09:18;;;;;;;8.85;4.35;;;;;;;14.39;79.85;101662.81;5036756;28;20550;-84
2021/06/23 07:11:44;;;;;;;12.75;4.03;;;;;;;14.41;79.62;101663.47;5041014;28;20037;-84
2021/06/23 07:14:10;;;;;;;10.70;3.80;;;;;;;14.45;78.76;101657.56;5039336;28;20565;-84
2021/06/23 07:16:36;;;;;;;9.52;3.67;;;;;;;14.44;79.49;101665.84;5048513;28;20049;-83
2021/06/23 07:19:02;;;;;;;9.13;3.78;;;;;;;14.48;80.04;101664.50;5044884;28;20478;-82
2021/06/23 07:21:27;;;;;;;6.55;3.63;;;;;;;14.51;78.19;101656.06;5049541;28;20067;-86
2021/06/23 07:23:54;;;;;;;10.05;3.40;;;;;;;14.60;79.35;101660.47;5051535;28;20041;-87
2021/06/23 07:26:20;;;;;;;10.00;3.28;;;;;;;14.70;77.28;101659.44;5042423;28;20041;-84
2021/06/23 07:28:51;;;;;;;10.20;3.42;;;;;;;14.72;77.57;101662.81;5046419;28;20045;-85
2021/06/23 07:31:30;;;;;;;9.20;3.95;;;;;;;14.73;77.97;101661.81;5058931;28;20068;-85
2021/06/23 07:34:06;;;;;;;9.52;3.20;;;;;;;14.69;76.49;101661.31;5023645;28;20037;-84
2021/06/23 07:36:35;;;;;;;9.05;3.00;;;;;;;14.71;77.30;101661.16;5045461;28;20049;-85
2021/06/23 07:39:02;;;;;;;7.90;3.63;;;;;;;14.61;77.39;101659.44;5044257;28;20053;-84
2021/06/23 07:41:28;;;;;;;9.27;3.05;;;;;;;14.73;76.61;101659.97;5044015;28;20064;-85
2021/06/23 07:43:53;;;;;;;10.25;3.30;;;;;;;14.84;77.85;101654.19;5066109;28;20384;-84
2021/06/23 07:46:19;;;;;;;7.05;3.00;;;;;;;14.95;77.69;101663.81;5037437;28;20140;-85
2021/06/23 07:48:48;;;;;;;7.57;2.88;;;;;;;14.94;76.85;101662.13;5039979;28;20045;-85
2021/06/23 07:51:17;;;;;;;;;;;;;;;14.76;75.27;101662.34;5039839;28;20053;-85
2021/06/23 07:53:57;;;;;;;10.88;3.58;;;;;;;14.63;76.24;101659.28;5036275;28;19966;-86
2021/06/23 07:56:34;;;;;;;8.07;3.13;;;;;;;14.68;78.44;101661.50;5058794;28;20049;-84
2021/06/23 08:09:44;;;;;;;8.68;3.47;;;;;;;14.73;77.03;101657.28;5045473;28;20076;-85
2021/06/23 08:14:38;;;;;;;8.48;3.45;;;;;;;14.93;76.87;101660.41;5041167;28;20045;-87
2021/06/23 08:17:04;;;;;;;9.10;3.25;;;;;;;15.01;76.32;101660.41;5039423;28;20087;-84
2021/06/23 08:19:30;;;;;;;6.85;3.08;;;;;;;14.96;76.32;101664.63;5045165;28;20495;-84
2021/06/23 08:21:55;;;;;;;8.65;3.40;;;;;;;15.00;77.19;101664.13;5043228;28;20439;-84
2021/06/23 08:24:21;;;;;;;10.82;3.65;;;;;;;15.02;75.99;101664.81;5041417;28;22531;-88
2021/06/23 08:26:46;;;;;;;9.40;3.28;;;;;;;15.00;76.42;101660.59;5045431;28;20057;-85
2021/06/23 08:29:12;;;;;;;10.30;3.22;;;;;;;15.04;74.96;101656.53;5047458;28;20476;-85
2021/06/23 08:31:37;;;;;;;9.88;2.60;;;;;;;15.15;74.77;101663.44;5039445;28;20049;-85
2021/06/23 08:34:03;;;;;;;6.97;3.03;;;;;;;15.22;75.08;101664.41;5043489;28;20052;-85
2021/06/23 08:36:28;;;;;;;8.55;2.90;;;;;;;15.39;74.64;101657.09;5045947;28;20063;-85
2021/06/23 08:38:54;;;;;;;9.20;3.17;;;;;;;15.26;73.58;101654.94;5055815;28;20068;-86
2021/06/23 08:41:26;;;;;;;7.55;2.92;;;;;;;15.46;74.71;101656.22;5043443;28;20458;-86
2021/06/23 08:43:55;;;;;;;8.70;3.03;;;;;;;15.43;73.39;101659.28;5025652;28;20463;-85
2021/06/23 08:46:22;;;;;;;7.72;2.45;;;;;;;15.66;73.48;101656.63;5033601;28;20085;-85
2021/06/23 08:48:48;;;;;;;7.00;2.67;;;;;;;15.70;72.63;101670.69;5024932;28;20107;-85
2021/06/23 08:51:14;;;;;;;10.85;3.35;;;;;;;15.76;72.31;101672.69;5026188;28;20066;-85
2021/06/23 08:53:39;;;;;;;10.10;3.00;;;;;;;15.72;71.58;101665.94;5024769;28;20050;-86
2021/06/23 08:56:06;;;;;;;7.30;2.58;;;;;;;15.66;72.45;101672.03;5020498;28;20053;-86
2021/06/23 08:58:32;;;;;;;8.10;2.70;;;;;;;15.76;73.09;101672.69;5016720;28;20050;-88
2021/06/23 09:00:58;;;;;;;12.00;2.72;;;;;;;15.74;70.86;101672.03;5019686;28;20046;-86
2021/06/23 09:03:24;;;;;;;8.75;2.50;;;;;;;15.63;69.39;101667.81;5047416;28;20048;-85
2021/06/23 09:05:53;;;;;;;7.90;2.50;;;;;;;15.59;71.78;101671.88;5047068;28;20049;-86
2021/06/23 09:08:27;;;;;;;;;;;;;;;15.55;69.10;101671.41;5048904;28;20128;-86
2021/06/23 09:10:53;;;;;;;6.53;2.05;;;;;;;15.74;72.06;101669.31;5042177;28;19924;-85
2021/06/23 09:13:19;;;;;;;9.35;2.53;;;;;;;16.01;70.97;101670.69;5042156;28;20811;-85
2021/06/23 09:15:52;;;;;;;7.13;3.00;;;;;;;16.25;69.71;101672.38;5043640;28;20037;-85
2021/06/23 09:18:34;;;;;;;5.95;2.72;;;;;;;16.24;70.64;101678.81;5039070;28;20420;-87
2021/06/23 09:21:12;;;;;;;9.20;2.55;;;;;;;16.41;69.14;101674.13;5039061;28;20758;-86
2021/06/23 09:23:53;;;;;;;8.45;2.47;;;;;;;16.40;68.47;101684.13;5042860;28;20484;-87
2021/06/23 09:26:33;;;;;;;8.75;2.80;;;;;;;16.31;69.36;101674.34;4997955;28;20079;-87
2021/06/23 09:29:10;;;;;;;7.32;2.55;;;;;;;16.20;69.26;101686.47;5043105;28;20049;-88
2021/06/23 09:32:00;;;;;;;7.55;2.92;;;;;;;16.26;69.60;101684.91;5059140;28;20074;-85
2021/06/23 09:34:33;;;;;;;7.10;2.65;;;;;;;16.15;70.31;101688.88;5053886;28;20065;-85
2021/06/23 09:37:02;;;;;;;7.95;3.00;;;;;;;16.41;68.84;101687.69;5040467;28;20053;-86
2021/06/23 09:39:30;;;;;;;8.18;3.58;;;;;;;16.72;69.87;101689.47;5042829;28;20484;-86
2021/06/23 09:41:57;;;;;;;8.15;3.65;;;;;;;16.73;69.04;101691.97;5046173;28;20120;-84
2021/06/23 09:44:23;;;;;;;8.18;3.40;;;;;;;16.78;68.65;101688.78;5047202;28;20049;-87
2021/06/23 09:46:50;;;;;;;9.82;3.28;;;;;;;16.65;68.93;101689.34;5047068;28;20114;-86
2021/06/23 09:49:24;;;;;;;15.27;4.28;;;;;;;16.90;70.91;101698.97;5045636;28;20045;-85
2021/06/23 09:52:10;;;;;;;11.63;4.15;;;;;;;16.99;69.52;101685.34;5043900;28;20049;-85
2021/06/23 09:54:49;;;;;;;8.65;3.55;;;;;;;17.00;68.82;101695.16;5042730;28;20143;-85
2021/06/23 09:57:16;;;;;;;7.75;3.58;;;;;;;16.94;67.84;101699.44;5040218;28;20045;-89
2021/06/23 09:59:46;;;;;;;11.40;4.30;;;;;;;16.94;69.68;101698.59;5038847;28;20492;-84
2021/06/23 10:02:20;;;;;;;11.90;4.28;;;;;;;17.18;70.41;101695.66;5045946;28;20653;-84
2021/06/23 10:04:46;;;;;;;10.13;4.68;;;;;;;17.18;68.57;101694.81;5043427;28;20532;-84
2021/06/23 10:07:11;;;;;;;7.47;3.50;;;;;;;17.14;70.00;101697.88;5040013;28;20085;-86
2021/06/23 10:09:37;;;;;;;6.88;3.55;;;;;;;17.26;68.60;101690.16;5040346;28;20515;-90
2021/06/23 10:12:08;;;;;;;11.60;3.90;;;;;;;17.27;69.13;101688.28;5041391;28;20052;-85
2021/06/23 10:14:42;;;;;;;9.25;4.22;;;;;;;17.24;68.21;101677.78;5044903;28;20037;-86
2021/06/23 10:17:09;;;;;;;8.32;4.03;;;;;;;17.37;68.22;101677.97;5039604;28;20037;-85
2021/06/23 10:19:34;;;;;;;10.27;4.15;;;;;;;17.73;68.30;101683.47;5041647;28;20052;-89
2021/06/23 10:22:02;;;;;;;9.73;4.68;;;;;;;17.82;68.44;101681.50;5045788;28;20253;-83
2021/06/23 10:24:29;;;;;;;6.85;3.63;;;;;;;17.68;69.20;101680.47;5046511;28;20492;-85
2021/06/23 10:26:56;;;;;;;9.90;4.32;;;;;;;17.81;68.76;101675.25;5045216;28;20385;-83
2021/06/23 10:29:33;;;;;;;8.40;4.07;;;;;;;17.68;68.25;101677.75;5039008;28;20110;-86
2021/06/23 10:32:02;;;;;;;8.23;4.10;;;;;;;17.76;67.74;101674.94;5040335;28;20049;-83
2021/06/23 10:34:27;;;;;;;9.07;4.80;;;;;;;17.77;67.99;101668.47;5035731;28;20136;-86
2021/06/23 10:36:54;;;;;;;7.47;4.68;;;;;;;17.86;68.41;101665.66;5040703;28;20124;-85
2021/06/23 10:39:21;;;;;;;11.57;5.20;;;;;;;17.68;69.29;101669.63;5038278;28;20045;-88
2021/06/23 10:41:50;;;;;;;9.85;5.13;;;;;;;17.95;68.98;101664.53;5039460;28;20178;-84
2021/06/23 10:44:24;;;;;;;10.10;5.45;;;;;;;17.96;68.99;101658.91;5043610;28;20091;-84
2021/06/23 10:46:53;;;;;;;9.85;4.85;;;;;;;17.88;68.24;101655.47;5076494;28;20057;-87
2021/06/23 10:49:41;;;;;;;9.20;5.25;;;;;;;17.78;67.63;101662.06;5040890;28;20045;-84
2021/06/23 10:52:30;;;;;;;10.43;5.25;;;;;;;17.88;66.07;101663.63;5037434;28;20053;-86
2021/06/23 10:54:57;;;;;;;11.63;5.32;;;;;;;17.76;68.25;101660.53;5044228;28;20089;-86
2021/06/23 10:57:36;;;;;;;9.48;5.13;;;;;;;17.92;70.17;101675.75;5045969;28;20037;-84
2021/06/23 11:00:21;;;;;;;9.90;5.22;;;;;;;18.09;65.47;101673.66;5043531;28;20385;-88
2021/06/23 11:02:50;;;;;;;10.82;5.30;;;;;;;17.98;67.33;101667.72;5038817;28;20047;-85
2021/06/23 11:05:37;;;;;;;11.32;5.63;;;;;;;18.03;69.31;101667.13;5039858;28;20053;-85
2021/06/23 11:08:23;;;;;;;9.32;5.05;;;;;;;18.18;64.33;101675.22;5039996;28;20051;-91
2021/06/23 11:10:50;;;;;;;7.13;4.90;;;;;;;17.99;64.07;101671.25;5037784;28;20235;-86
2021/06/23 11:13:22;;;;;;;8.48;4.40;;;;;;;17.97;63.84;101679.59;5042886;28;20409;-85
2021/06/23 11:15:52;;;;;;;9.95;5.90;;;;;;;17.81;64.89;101667.09;5039619;28;20190;-85
2021/06/23 11:18:30;;;;;;;9.85;5.68;;;;;;;17.94;66.88;101671.00;5019591;28;20046;-83
2021/06/23 11:21:22;;;;;;;10.32;5.75;;;;;;;17.94;63.78;101665.56;5022638;28;20053;-84
2021/06/23 11:23:58;;;;;;;8.07;5.28;;;;;;;17.77;65.90;101667.63;5025660;28;20269;-84
2021/06/23 11:26:24;;;;;;;10.02;5.72;;;;;;;18.09;65.13;101671.78;5042134;28;20049;-85
2021/06/23 11:28:51;;;;;;;9.07;5.50;;;;;;;18.35;65.48;101673.91;5041381;28;20465;-83
2021/06/23 11:31:21;;;;;;;9.23;5.88;;;;;;;18.60;65.61;101671.66;5040621;28;20088;-85
2021/06/23 11:33:49;;;;;;;8.55;6.03;;;;;;;18.93;65.40;101671.97;5044295;28;20492;-83
2021/06/23 11:36:18;;;;;;;11.15;5.25;;;;;;;19.20;66.67;101668.56;5044295;28;20053;-83